sensor_id;sensor_type;location;lat;lon;timestamp;pressure;altitude;pressure_sealevel;temperature;humidity
55066;BME280;40964;42.114;24.220;2023-01-19T00:01:21;96862.22;;;14.53;49.98
55066;BME280;40964;42.114;24.220;2023-01-19T00:03:46;96841.03;;;14.89;48.64
55066;BME280;40964;42.114;24.220;2023-01-19T00:06:12;96850.03;;;14.88;49.05
55066;BME280;40964;42.114;24.220;2023-01-19T00:08:37;96867.53;;;14.94;48.63
55066;BME280;40964;42.114;24.220;2023-01-19T00:11:03;96864.09;;;14.93;49.04
55066;BME280;40964;42.114;24.220;2023-01-19T00:13:29;96832.81;;;14.90;49.07
55066;BME280;40964;42.114;24.220;2023-01-19T00:15:54;96881.81;;;15.03;48.66
55066;BME280;40964;42.114;24.220;2023-01-19T00:18:20;96877.28;;;15.09;49.63
55066;BME280;40964;42.114;24.220;2023-01-19T00:20:46;96866.44;;;15.05;49.15
55066;BME280;40964;42.114;24.220;2023-01-19T00:23:13;96871.22;;;15.03;49.13
55066;BME280;40964;42.114;24.220;2023-01-19T00:25:39;96871.97;;;15.09;48.16
55066;BME280;40964;42.114;24.220;2023-01-19T00:28:07;96894.50;;;15.06;49.13
55066;BME280;40964;42.114;24.220;2023-01-19T00:30:33;96893.19;;;15.03;48.79
55066;BME280;40964;42.114;24.220;2023-01-19T00:32:58;96893.97;;;15.09;48.85
55066;BME280;40964;42.114;24.220;2023-01-19T00:35:24;96895.56;;;15.05;48.92
55066;BME280;40964;42.114;24.220;2023-01-19T00:37:50;96903.25;;;15.01;48.94
55066;BME280;40964;42.114;24.220;2023-01-19T00:40:16;96913.28;;;15.10;48.93
55066;BME280;40964;42.114;24.220;2023-01-19T00:42:41;96899.25;;;15.14;47.68
55066;BME280;40964;42.114;24.220;2023-01-19T00:45:15;96915.69;;;15.16;48.63
55066;BME280;40964;42.114;24.220;2023-01-19T00:47:41;96898.75;;;15.12;48.10
55066;BME280;40964;42.114;24.220;2023-01-19T00:50:08;96897.94;;;15.17;48.32
55066;BME280;40964;42.114;24.220;2023-01-19T00:52:37;96901.91;;;15.14;48.61
55066;BME280;40964;42.114;24.220;2023-01-19T00:55:07;96896.63;;;15.14;48.60
55066;BME280;40964;42.114;24.220;2023-01-19T00:57:33;96896.38;;;15.11;48.57
55066;BME280;40964;42.114;24.220;2023-01-19T00:59:59;96901.66;;;15.05;48.43
55066;BME280;40964;42.114;24.220;2023-01-19T01:02:24;96889.22;;;15.01;48.67
55066;BME280;40964;42.114;24.220;2023-01-19T01:04:50;96905.91;;;15.01;48.38
55066;BME280;40964;42.114;24.220;2023-01-19T01:07:23;96879.91;;;15.24;47.33
55066;BME280;40964;42.114;24.220;2023-01-19T01:09:49;96884.69;;;15.17;48.12
55066;BME280;40964;42.114;24.220;2023-01-19T01:12:14;96900.59;;;15.12;48.46
55066;BME280;40964;42.114;24.220;2023-01-19T01:14:40;96882.81;;;15.17;47.68
55066;BME280;40964;42.114;24.220;2023-01-19T01:17:06;96905.34;;;15.20;47.85
55066;BME280;40964;42.114;24.220;2023-01-19T01:19:36;96899.25;;;15.19;48.93
55066;BME280;40964;42.114;24.220;2023-01-19T01:22:03;96899.00;;;15.16;47.92
55066;BME280;40964;42.114;24.220;2023-01-19T01:24:28;96892.09;;;15.10;48.16
55066;BME280;40964;42.114;24.220;2023-01-19T01:26:54;96904.56;;;15.09;48.59
55066;BME280;40964;42.114;24.220;2023-01-19T01:29:19;96909.84;;;14.99;49.19
55066;BME280;40964;42.114;24.220;2023-01-19T01:31:45;96901.94;;;14.84;49.69
55066;BME280;40964;42.114;24.220;2023-01-19T01:34:10;96885.00;;;14.69;50.34
55066;BME280;40964;42.114;24.220;2023-01-19T01:36:36;96904.84;;;14.62;50.39
55066;BME280;40964;42.114;24.220;2023-01-19T01:39:05;96900.34;;;14.57;50.54
55066;BME280;40964;42.114;24.220;2023-01-19T01:41:30;96906.16;;;14.49;50.47
55066;BME280;40964;42.114;24.220;2023-01-19T01:43:56;96893.41;;;14.41;50.44
55066;BME280;40964;42.114;24.220;2023-01-19T01:46:23;96897.13;;;14.40;50.81
55066;BME280;40964;42.114;24.220;2023-01-19T01:48:51;96898.13;;;14.29;50.86
55066;BME280;40964;42.114;24.220;2023-01-19T01:51:33;96902.63;;;14.28;50.54
55066;BME280;40964;42.114;24.220;2023-01-19T01:56:37;96896.31;;;14.39;50.28
55066;BME280;40964;42.114;24.220;2023-01-19T01:59:07;96890.50;;;14.42;50.08
55066;BME280;40964;42.114;24.220;2023-01-19T02:01:34;96913.53;;;14.42;50.11
55066;BME280;40964;42.114;24.220;2023-01-19T02:04:32;96910.91;;;14.52;50.07
55066;BME280;40964;42.114;24.220;2023-01-19T02:06:58;96911.44;;;14.54;49.54
55066;BME280;40964;42.114;24.220;2023-01-19T02:09:42;96916.22;;;14.57;49.38
55066;BME280;40964;42.114;24.220;2023-01-19T02:12:27;96910.13;;;14.52;49.70
55066;BME280;40964;42.114;24.220;2023-01-19T02:15:16;96931.56;;;14.60;49.48
55066;BME280;40964;42.114;24.220;2023-01-19T02:17:43;96903.00;;;14.57;48.88
55066;BME280;40964;42.114;24.220;2023-01-19T02:20:09;96900.06;;;14.89;47.51
55066;BME280;40964;42.114;24.220;2023-01-19T02:22:41;96904.81;;;15.08;47.66
55066;BME280;40964;42.114;24.220;2023-01-19T02:25:09;96927.06;;;14.91;49.12
55066;BME280;40964;42.114;24.220;2023-01-19T02:27:35;96911.97;;;14.82;49.08
55066;BME280;40964;42.114;24.220;2023-01-19T02:30:02;96906.19;;;14.74;48.85
55066;BME280;40964;42.114;24.220;2023-01-19T02:32:28;96901.41;;;14.76;48.62
55066;BME280;40964;42.114;24.220;2023-01-19T02:34:54;96888.19;;;14.76;48.58
55066;BME280;40964;42.114;24.220;2023-01-19T02:37:20;96893.47;;;14.92;47.71
55066;BME280;40964;42.114;24.220;2023-01-19T02:39:54;96892.41;;;14.93;47.04
55066;BME280;40964;42.114;24.220;2023-01-19T02:42:49;96906.44;;;14.88;47.97
55066;BME280;40964;42.114;24.220;2023-01-19T02:45:19;96894.50;;;14.91;47.60
55066;BME280;40964;42.114;24.220;2023-01-19T02:47:50;96884.72;;;14.96;47.44
55066;BME280;40964;42.114;24.220;2023-01-19T02:53:38;96892.66;;;14.96;47.06
55066;BME280;40964;42.114;24.220;2023-01-19T02:59:02;96899.81;;;15.11;46.39
55066;BME280;40964;42.114;24.220;2023-01-19T03:07:12;96885.00;;;14.95;47.34
55066;BME280;40964;42.114;24.220;2023-01-19T03:09:52;96897.72;;;14.93;47.50
55066;BME280;40964;42.114;24.220;2023-01-19T03:14:51;96904.03;;;15.22;46.31
55066;BME280;40964;42.114;24.220;2023-01-19T03:17:20;96893.94;;;15.24;46.11
55066;BME280;40964;42.114;24.220;2023-01-19T03:19:48;96882.28;;;15.30;46.06
55066;BME280;40964;42.114;24.220;2023-01-19T03:22:26;96885.44;;;15.32;45.85
55066;BME280;40964;42.114;24.220;2023-01-19T03:24:57;96883.63;;;15.28;46.44
55066;BME280;40964;42.114;24.220;2023-01-19T03:27:26;96898.44;;;15.29;45.99
55066;BME280;40964;42.114;24.220;2023-01-19T03:29:59;96882.28;;;15.30;45.84
55066;BME280;40964;42.114;24.220;2023-01-19T03:32:35;96903.44;;;15.36;46.10
55066;BME280;40964;42.114;24.220;2023-01-19T03:35:05;96894.47;;;15.26;46.37
55066;BME280;40964;42.114;24.220;2023-01-19T03:37:36;96860.56;;;15.28;45.85
55066;BME280;40964;42.114;24.220;2023-01-19T03:40:03;96890.75;;;15.32;46.48
55066;BME280;40964;42.114;24.220;2023-01-19T03:42:29;96874.38;;;15.20;46.27
55066;BME280;40964;42.114;24.220;2023-01-19T03:44:55;96895.81;;;15.29;46.33
55066;BME280;40964;42.114;24.220;2023-01-19T03:47:22;96893.69;;;15.21;47.43
55066;BME280;40964;42.114;24.220;2023-01-19T03:49:48;96915.69;;;15.21;46.96
55066;BME280;40964;42.114;24.220;2023-01-19T03:52:14;96896.34;;;15.05;46.80
55066;BME280;40964;42.114;24.220;2023-01-19T03:54:40;96900.06;;;15.15;47.19
55066;BME280;40964;42.114;24.220;2023-01-19T03:57:06;96892.94;;;15.10;47.43
55066;BME280;40964;42.114;24.220;2023-01-19T03:59:32;96911.72;;;15.03;46.77
55066;BME280;40964;42.114;24.220;2023-01-19T04:01:58;96889.72;;;15.08;46.63
55066;BME280;40964;42.114;24.220;2023-01-19T04:04:24;96892.84;;;15.36;46.14
55066;BME280;40964;42.114;24.220;2023-01-19T04:06:49;96894.47;;;15.26;46.23
55066;BME280;40964;42.114;24.220;2023-01-19T04:09:15;96896.03;;;15.32;46.24
55066;BME280;40964;42.114;24.220;2023-01-19T04:11:41;96885.75;;;15.16;46.71
55066;BME280;40964;42.114;24.220;2023-01-19T04:14:06;96890.25;;;15.15;47.17
55066;BME280;40964;42.114;24.220;2023-01-19T04:16:32;96896.06;;;15.17;47.14
55066;BME280;40964;42.114;24.220;2023-01-19T04:18:57;96914.38;;;15.19;47.58
55066;BME280;40964;42.114;24.220;2023-01-19T04:21:23;96899.56;;;15.02;47.40
55066;BME280;40964;42.114;24.220;2023-01-19T04:23:48;96896.59;;;15.09;47.19
55066;BME280;40964;42.114;24.220;2023-01-19T04:26:14;96889.72;;;15.13;47.40
55066;BME280;40964;42.114;24.220;2023-01-19T04:28:40;96898.72;;;15.07;48.06
55066;BME280;40964;42.114;24.220;2023-01-19T04:31:06;96889.75;;;14.93;48.28
55066;BME280;40964;42.114;24.220;2023-01-19T04:33:31;96900.09;;;14.79;48.83
55066;BME280;40964;42.114;24.220;2023-01-19T04:35:57;96883.41;;;14.73;48.50
55066;BME280;40964;42.114;24.220;2023-01-19T04:38:23;96901.41;;;14.76;48.68
55066;BME280;40964;42.114;24.220;2023-01-19T04:40:49;96897.69;;;14.62;49.95
55066;BME280;40964;42.114;24.220;2023-01-19T04:43:17;96902.75;;;14.74;49.09
55066;BME280;40964;42.114;24.220;2023-01-19T04:45:44;96922.28;;;14.63;49.73
55066;BME280;40964;42.114;24.220;2023-01-19T04:48:11;96897.16;;;14.70;48.98
55066;BME280;40964;42.114;24.220;2023-01-19T04:50:36;96883.41;;;14.79;48.30
55066;BME280;40964;42.114;24.220;2023-01-19T04:53:02;96901.13;;;14.73;48.78
55066;BME280;40964;42.114;24.220;2023-01-19T04:55:28;96893.22;;;14.83;48.37
55066;BME280;40964;42.114;24.220;2023-01-19T04:57:53;96888.97;;;14.87;48.33
55066;BME280;40964;42.114;24.220;2023-01-19T05:00:19;96885.78;;;14.85;48.17
55066;BME280;40964;42.114;24.220;2023-01-19T05:02:45;96868.84;;;14.76;47.64
55066;BME280;40964;42.114;24.220;2023-01-19T05:05:11;96894.53;;;14.86;48.07
55066;BME280;40964;42.114;24.220;2023-01-19T05:07:37;96901.16;;;14.83;47.36
55066;BME280;40964;42.114;24.220;2023-01-19T05:10:03;96887.63;;;14.90;48.18
55066;BME280;40964;42.114;24.220;2023-01-19T05:12:29;96891.59;;;14.82;47.91
55066;BME280;40964;42.114;24.220;2023-01-19T05:14:55;96895.56;;;14.80;48.22
55066;BME280;40964;42.114;24.220;2023-01-19T05:17:21;96884.75;;;14.66;47.58
55066;BME280;40964;42.114;24.220;2023-01-19T05:19:46;96886.56;;;14.70;48.09
55066;BME280;40964;42.114;24.220;2023-01-19T05:22:13;96908.81;;;14.85;48.08
55066;BME280;40964;42.114;24.220;2023-01-19T05:24:38;96906.44;;;14.88;48.47
55066;BME280;40964;42.114;24.220;2023-01-19T05:27:04;96919.69;;;14.83;48.67
55066;BME280;40964;42.114;24.220;2023-01-19T05:29:29;96916.78;;;14.74;48.89
55066;BME280;40964;42.114;24.220;2023-01-19T05:31:55;96930.00;;;14.80;49.06
55066;BME280;40964;42.114;24.220;2023-01-19T05:34:20;96935.56;;;14.78;48.93
55066;BME280;40964;42.114;24.220;2023-01-19T05:36:46;96907.47;;;14.82;48.38
55066;BME280;40964;42.114;24.220;2023-01-19T05:39:11;96933.97;;;14.92;48.58
55066;BME280;40964;42.114;24.220;2023-01-19T05:41:37;96924.41;;;14.91;48.20
55066;BME280;40964;42.114;24.220;2023-01-19T05:44:02;96933.19;;;14.92;48.61
55066;BME280;40964;42.114;24.220;2023-01-19T05:46:28;96930.00;;;14.95;48.13
55066;BME280;40964;42.114;24.220;2023-01-19T05:48:53;96936.09;;;14.95;48.11
55066;BME280;40964;42.114;24.220;2023-01-19T05:51:19;96935.56;;;15.03;47.61
55066;BME280;40964;42.114;24.220;2023-01-19T05:53:44;96945.88;;;15.00;47.87
55066;BME280;40964;42.114;24.220;2023-01-19T05:56:10;96954.09;;;15.03;47.76
55066;BME280;40964;42.114;24.220;2023-01-19T05:58:36;96950.38;;;14.94;47.95
55066;BME280;40964;42.114;24.220;2023-01-19T06:01:08;96958.34;;;14.94;47.75
55066;BME280;40964;42.114;24.220;2023-01-19T06:03:34;96950.63;;;14.98;46.90
55066;BME280;40964;42.114;24.220;2023-01-19T06:06:04;96970.25;;;15.02;47.38
55066;BME280;40964;42.114;24.220;2023-01-19T06:08:30;96944.84;;;15.01;46.62
55066;BME280;40964;42.114;24.220;2023-01-19T06:10:55;96970.78;;;15.04;46.98
55066;BME280;40964;42.114;24.220;2023-01-19T06:13:21;96949.84;;;15.08;46.72
55066;BME280;40964;42.114;24.220;2023-01-19T06:15:46;96950.13;;;14.96;46.66
55066;BME280;40964;42.114;24.220;2023-01-19T06:18:13;96958.88;;;15.12;46.76
55066;BME280;40964;42.114;24.220;2023-01-19T06:20:41;96934.75;;;15.08;46.39
55066;BME280;40964;42.114;24.220;2023-01-19T06:23:07;96950.38;;;15.10;46.55
55066;BME280;40964;42.114;24.220;2023-01-19T06:25:33;96953.28;;;15.08;46.72
55066;BME280;40964;42.114;24.220;2023-01-19T06:27:58;96956.47;;;15.05;46.98
55066;BME280;40964;42.114;24.220;2023-01-19T06:30:24;96961.78;;;15.05;46.89
55066;BME280;40964;42.114;24.220;2023-01-19T06:32:49;96941.63;;;15.09;46.55
55066;BME280;40964;42.114;24.220;2023-01-19T06:35:15;96960.44;;;15.13;47.14
55066;BME280;40964;42.114;24.220;2023-01-19T06:37:40;96953.00;;;15.10;46.52
55066;BME280;40964;42.114;24.220;2023-01-19T06:40:07;96962.56;;;15.05;46.87
55066;BME280;40964;42.114;24.220;2023-01-19T06:42:32;96953.84;;;15.10;46.43
55066;BME280;40964;42.114;24.220;2023-01-19T06:44:58;96954.06;;;15.09;46.57
55066;BME280;40964;42.114;24.220;2023-01-19T06:47:24;96944.28;;;15.19;45.92
55066;BME280;40964;42.114;24.220;2023-01-19T06:49:49;96949.56;;;15.24;45.52
55066;BME280;40964;42.114;24.220;2023-01-19T06:52:15;96945.06;;;15.25;45.48
55066;BME280;40964;42.114;24.220;2023-01-19T06:54:42;96935.53;;;15.24;46.00
55066;BME280;40964;42.114;24.220;2023-01-19T06:57:08;96938.72;;;15.31;46.12
55066;BME280;40964;42.114;24.220;2023-01-19T06:59:36;96929.44;;;15.28;46.15
55066;BME280;40964;42.114;24.220;2023-01-19T07:02:02;96913.25;;;15.35;45.88
55066;BME280;40964;42.114;24.220;2023-01-19T07:04:27;96943.19;;;15.36;45.61
55066;BME280;40964;42.114;24.220;2023-01-19T07:06:53;96924.38;;;15.42;45.29
55066;BME280;40964;42.114;24.220;2023-01-19T07:09:18;96932.56;;;15.51;45.05
55066;BME280;40964;42.114;24.220;2023-01-19T07:11:45;96936.28;;;15.50;45.07
55066;BME280;40964;42.114;24.220;2023-01-19T07:14:11;96929.66;;;15.52;45.04
55066;BME280;40964;42.114;24.220;2023-01-19T07:16:37;96924.63;;;15.56;45.12
55066;BME280;40964;42.114;24.220;2023-01-19T07:19:03;96940.75;;;15.54;45.06
55066;BME280;40964;42.114;24.220;2023-01-19T07:21:28;96916.91;;;15.59;45.33
55066;BME280;40964;42.114;24.220;2023-01-19T07:23:54;96906.06;;;15.56;45.12
55066;BME280;40964;42.114;24.220;2023-01-19T07:26:20;96915.88;;;15.66;45.94
55066;BME280;40964;42.114;24.220;2023-01-19T07:28:46;96943.69;;;15.68;45.64
55066;BME280;40964;42.114;24.220;2023-01-19T07:31:12;96931.22;;;15.74;45.21
55066;BME280;40964;42.114;24.220;2023-01-19T07:33:38;96906.81;;;15.77;45.16
55066;BME280;40964;42.114;24.220;2023-01-19T07:36:03;96907.31;;;15.79;44.59
55066;BME280;40964;42.114;24.220;2023-01-19T07:38:29;96938.88;;;15.85;45.43
55066;BME280;40964;42.114;24.220;2023-01-19T07:41:02;96922.44;;;15.83;45.17
55066;BME280;40964;42.114;24.220;2023-01-19T07:43:28;96936.44;;;15.89;45.12
55066;BME280;40964;42.114;24.220;2023-01-19T07:45:58;96947.06;;;15.89;45.00
55066;BME280;40964;42.114;24.220;2023-01-19T07:48:24;96914.44;;;15.88;45.03
55066;BME280;40964;42.114;24.220;2023-01-19T07:50:50;96934.03;;;15.98;45.26
55066;BME280;40964;42.114;24.220;2023-01-19T07:53:15;96939.09;;;15.94;44.53
55066;BME280;40964;42.114;24.220;2023-01-19T07:55:42;96963.72;;;16.05;44.84
55066;BME280;40964;42.114;24.220;2023-01-19T07:58:07;96954.16;;;16.09;45.00
55066;BME280;40964;42.114;24.220;2023-01-19T08:00:34;96958.66;;;16.08;45.04
55066;BME280;40964;42.114;24.220;2023-01-19T08:03:01;96966.84;;;16.17;44.87
55066;BME280;40964;42.114;24.220;2023-01-19T08:05:27;96974.78;;;16.17;44.92
55066;BME280;40964;42.114;24.220;2023-01-19T08:07:54;96962.59;;;16.21;45.15
55066;BME280;40964;42.114;24.220;2023-01-19T08:10:22;96967.84;;;16.31;44.03
55066;BME280;40964;42.114;24.220;2023-01-19T08:12:50;96984.56;;;16.32;44.48
55066;BME280;40964;42.114;24.220;2023-01-19T08:15:16;96987.16;;;16.42;44.98
55066;BME280;40964;42.114;24.220;2023-01-19T08:17:41;97000.44;;;16.42;45.21
55066;BME280;40964;42.114;24.220;2023-01-19T08:20:07;96974.94;;;16.46;44.74
55066;BME280;40964;42.114;24.220;2023-01-19T08:22:34;96999.31;;;16.53;44.23
55066;BME280;40964;42.114;24.220;2023-01-19T08:24:59;96975.19;;;16.50;44.26
55066;BME280;40964;42.114;24.220;2023-01-19T08:27:24;96990.81;;;16.56;44.72
55066;BME280;40964;42.114;24.220;2023-01-19T08:29:50;97006.97;;;16.60;44.00
55066;BME280;40964;42.114;24.220;2023-01-19T08:32:15;96997.09;;;16.70;44.12
55066;BME280;40964;42.114;24.220;2023-01-19T08:34:41;96999.50;;;16.72;44.28
55066;BME280;40964;42.114;24.220;2023-01-19T08:37:06;97008.50;;;16.76;43.65
55066;BME280;40964;42.114;24.220;2023-01-19T08:39:32;97010.66;;;16.74;44.20
55066;BME280;40964;42.114;24.220;2023-01-19T08:41:57;97009.06;;;16.73;43.81
55066;BME280;40964;42.114;24.220;2023-01-19T08:44:25;97009.81;;;16.79;43.42
55066;BME280;40964;42.114;24.220;2023-01-19T08:46:51;96987.75;;;16.83;43.47
55066;BME280;40964;42.114;24.220;2023-01-19T08:49:16;97000.72;;;16.90;43.14
55066;BME280;40964;42.114;24.220;2023-01-19T08:51:42;96999.88;;;16.99;42.96
55066;BME280;40964;42.114;24.220;2023-01-19T08:54:10;96991.31;;;17.08;42.32
55066;BME280;40964;42.114;24.220;2023-01-19T08:56:35;97001.94;;;17.08;43.38
55066;BME280;40964;42.114;24.220;2023-01-19T08:59:01;96999.69;;;17.20;43.28
55066;BME280;40964;42.114;24.220;2023-01-19T09:01:33;96993.00;;;17.27;41.86
55066;BME280;40964;42.114;24.220;2023-01-19T09:03:59;97002.25;;;17.35;42.89
55066;BME280;40964;42.114;24.220;2023-01-19T09:06:24;97003.28;;;17.34;42.64
55066;BME280;40964;42.114;24.220;2023-01-19T09:08:50;96963.97;;;17.36;41.88
55066;BME280;40964;42.114;24.220;2023-01-19T09:11:16;96964.88;;;17.21;41.26
55066;BME280;40964;42.114;24.220;2023-01-19T09:13:41;96971.06;;;17.41;42.57
55066;BME280;40964;42.114;24.220;2023-01-19T09:16:08;96955.63;;;17.43;41.05
55066;BME280;40964;42.114;24.220;2023-01-19T09:18:34;96939.47;;;17.39;41.91
55066;BME280;40964;42.114;24.220;2023-01-19T09:21:00;96956.66;;;17.47;41.36
55066;BME280;40964;42.114;24.220;2023-01-19T09:23:26;96963.75;;;17.56;41.16
55066;BME280;40964;42.114;24.220;2023-01-19T09:25:56;96959.44;;;17.60;39.48
55066;BME280;40964;42.114;24.220;2023-01-19T09:28:22;96944.47;;;17.70;40.12
55066;BME280;40964;42.114;24.220;2023-01-19T09:30:48;96942.56;;;17.75;39.54
55066;BME280;40964;42.114;24.220;2023-01-19T09:33:15;96942.00;;;17.78;39.53
55066;BME280;40964;42.114;24.220;2023-01-19T09:35:42;96926.28;;;17.82;39.47
55066;BME280;40964;42.114;24.220;2023-01-19T09:38:08;96927.88;;;17.83;39.37
55066;BME280;40964;42.114;24.220;2023-01-19T09:40:49;96916.88;;;17.90;39.80
55066;BME280;40964;42.114;24.220;2023-01-19T09:43:17;96910.41;;;17.96;39.73
55066;BME280;40964;42.114;24.220;2023-01-19T09:45:59;96915.44;;;17.97;38.88
55066;BME280;40964;42.114;24.220;2023-01-19T09:50:55;96906.31;;;18.03;39.39
55066;BME280;40964;42.114;24.220;2023-01-19T09:53:39;96894.53;;;18.09;38.85
55066;BME280;40964;42.114;24.220;2023-01-19T09:56:14;96903.94;;;18.02;38.76
55066;BME280;40964;42.114;24.220;2023-01-19T09:58:42;96894.88;;;18.03;39.25
55066;BME280;40964;42.114;24.220;2023-01-19T10:06:32;96883.47;;;18.21;38.38
55066;BME280;40964;42.114;24.220;2023-01-19T10:09:13;96872.69;;;18.31;38.51
55066;BME280;40964;42.114;24.220;2023-01-19T10:11:50;96858.88;;;18.29;37.28
55066;BME280;40964;42.114;24.220;2023-01-19T10:14:29;96864.19;;;18.29;38.32
55066;BME280;40964;42.114;24.220;2023-01-19T10:17:15;96855.91;;;18.31;38.56
55066;BME280;40964;42.114;24.220;2023-01-19T10:19:47;96861.47;;;18.34;38.51
55066;BME280;40964;42.114;24.220;2023-01-19T10:22:23;96852.75;;;18.29;38.70
55066;BME280;40964;42.114;24.220;2023-01-19T10:24:58;96855.19;;;18.44;39.13
55066;BME280;40964;42.114;24.220;2023-01-19T10:27:30;96841.38;;;18.42;38.00
55066;BME280;40964;42.114;24.220;2023-01-19T10:29:57;96855.19;;;18.44;37.43
55066;BME280;40964;42.114;24.220;2023-01-19T10:32:29;96864.91;;;18.54;38.38
55066;BME280;40964;42.114;24.220;2023-01-19T10:34:55;96846.47;;;18.57;38.50
55066;BME280;40964;42.114;24.220;2023-01-19T10:39:54;96839.13;;;18.68;37.78
55066;BME280;40964;42.114;24.220;2023-01-19T10:42:20;96828.19;;;18.69;38.22
55066;BME280;40964;42.114;24.220;2023-01-19T10:44:46;96828.88;;;18.75;37.07
55066;BME280;40964;42.114;24.220;2023-01-19T10:47:19;96834.72;;;18.77;38.11
55066;BME280;40964;42.114;24.220;2023-01-19T10:49:45;96823.25;;;18.77;37.78
55066;BME280;40964;42.114;24.220;2023-01-19T10:52:33;96838.38;;;18.81;36.98
55066;BME280;40964;42.114;24.220;2023-01-19T10:55:02;96846.38;;;18.81;37.32
55066;BME280;40964;42.114;24.220;2023-01-19T10:57:34;96849.34;;;18.93;37.52
55066;BME280;40964;42.114;24.220;2023-01-19T11:00:03;96844.81;;;18.94;36.68
55066;BME280;40964;42.114;24.220;2023-01-19T11:02:30;96858.13;;;18.94;36.69
55066;BME280;40964;42.114;24.220;2023-01-19T11:07:42;96847.75;;;18.79;35.96
55066;BME280;40964;42.114;24.220;2023-01-19T11:12:52;96851.41;;;18.83;36.31
55066;BME280;40964;42.114;24.220;2023-01-19T11:15:32;96852.50;;;18.82;35.97
55066;BME280;40964;42.114;24.220;2023-01-19T11:18:00;96855.97;;;18.96;36.15
55066;BME280;40964;42.114;24.220;2023-01-19T11:20:30;96859.66;;;19.14;37.15
55066;BME280;40964;42.114;24.220;2023-01-19T11:25:31;96861.63;;;19.08;35.60
55066;BME280;40964;42.114;24.220;2023-01-19T11:27:58;96867.16;;;19.12;36.89
55066;BME280;40964;42.114;24.220;2023-01-19T11:30:25;96856.50;;;19.12;36.49
55066;BME280;40964;42.114;24.220;2023-01-19T11:32:51;96844.97;;;19.16;36.23
55066;BME280;40964;42.114;24.220;2023-01-19T11:35:38;96849.16;;;19.04;37.14
55066;BME280;40964;42.114;24.220;2023-01-19T11:38:24;96861.34;;;19.10;36.76
55066;BME280;40964;42.114;24.220;2023-01-19T11:40:54;96866.53;;;18.87;36.51
55066;BME280;40964;42.114;24.220;2023-01-19T11:43:23;96851.69;;;18.81;36.32
55066;BME280;40964;42.114;24.220;2023-01-19T11:45:49;96862.34;;;18.81;36.75
55066;BME280;40964;42.114;24.220;2023-01-19T11:48:35;96864.53;;;18.79;36.49
55066;BME280;40964;42.114;24.220;2023-01-19T11:51:04;96854.38;;;18.81;36.02
55066;BME280;40964;42.114;24.220;2023-01-19T11:53:34;96867.19;;;18.79;36.23
55066;BME280;40964;42.114;24.220;2023-01-19T11:56:12;96878.81;;;18.69;36.82
55066;BME280;40964;42.114;24.220;2023-01-19T11:58:42;96865.53;;;18.64;37.64
55066;BME280;40964;42.114;24.220;2023-01-19T12:03:50;96872.97;;;18.67;36.66
55066;BME280;40964;42.114;24.220;2023-01-19T12:06:21;96888.94;;;18.67;36.88
55066;BME280;40964;42.114;24.220;2023-01-19T12:08:52;96889.97;;;18.71;37.12
55066;BME280;40964;42.114;24.220;2023-01-19T12:11:28;96891.72;;;18.76;36.89
55066;BME280;40964;42.114;24.220;2023-01-19T12:13:56;96866.84;;;18.67;37.19
55066;BME280;40964;42.114;24.220;2023-01-19T12:16:24;96873.09;;;18.76;36.17
55066;BME280;40964;42.114;24.220;2023-01-19T12:18:55;96877.72;;;18.70;37.16
55066;BME280;40964;42.114;24.220;2023-01-19T12:21:21;96882.75;;;18.53;37.65
55066;BME280;40964;42.114;24.220;2023-01-19T12:26:49;96872.97;;;18.30;38.12
55066;BME280;40964;42.114;24.220;2023-01-19T12:29:20;96875.78;;;18.20;38.27
55066;BME280;40964;42.114;24.220;2023-01-19T12:34:55;96863.84;;;18.17;39.27
55066;BME280;40964;42.114;24.220;2023-01-19T12:39:57;96855.84;;;17.98;39.09
55066;BME280;40964;42.114;24.220;2023-01-19T12:42:25;96860.38;;;17.98;39.72
55066;BME280;40964;42.114;24.220;2023-01-19T12:47:30;96888.84;;;17.97;39.54
55066;BME280;40964;42.114;24.220;2023-01-19T12:49:57;96872.09;;;17.97;38.86
55066;BME280;40964;42.114;24.220;2023-01-19T12:52:54;96870.00;;;17.94;39.48
55066;BME280;40964;42.114;24.220;2023-01-19T12:55:27;96879.28;;;17.96;39.26
55066;BME280;40964;42.114;24.220;2023-01-19T12:58:06;96875.66;;;17.87;39.31
55066;BME280;40964;42.114;24.220;2023-01-19T13:00:39;96887.50;;;17.76;40.16
55066;BME280;40964;42.114;24.220;2023-01-19T13:10:54;96868.16;;;17.70;39.26
55066;BME280;40964;42.114;24.220;2023-01-19T13:13:28;96887.03;;;17.69;39.73
55066;BME280;40964;42.114;24.220;2023-01-19T13:15:55;96869.63;;;17.57;40.21
55066;BME280;40964;42.114;24.220;2023-01-19T13:18:33;96894.84;;;17.60;40.01
55066;BME280;40964;42.114;24.220;2023-01-19T13:21:05;96870.41;;;17.58;40.04
55066;BME280;40964;42.114;24.220;2023-01-19T13:26:18;96885.06;;;17.55;40.30
55066;BME280;40964;42.114;24.220;2023-01-19T13:28:49;96874.47;;;17.50;40.67
55066;BME280;40964;42.114;24.220;2023-01-19T13:31:15;96892.63;;;17.43;40.59
55066;BME280;40964;42.114;24.220;2023-01-19T13:33:46;96855.53;;;17.33;40.07
55066;BME280;40964;42.114;24.220;2023-01-19T13:36:20;96879.84;;;17.21;39.85
55066;BME280;40964;42.114;24.220;2023-01-19T13:38:47;96841.31;;;16.95;40.03
55066;BME280;40964;42.114;24.220;2023-01-19T13:41:15;96868.03;;;17.09;40.71
55066;BME280;40964;42.114;24.220;2023-01-19T13:43:42;96859.91;;;16.95;41.68
55066;BME280;40964;42.114;24.220;2023-01-19T13:46:12;96865.88;;;16.82;42.04
55066;BME280;40964;42.114;24.220;2023-01-19T13:48:38;96865.31;;;16.85;42.52
55066;BME280;40964;42.114;24.220;2023-01-19T13:51:06;96871.41;;;16.85;42.08
55066;BME280;40964;42.114;24.220;2023-01-19T13:53:32;96859.81;;;16.76;42.74
55066;BME280;40964;42.114;24.220;2023-01-19T13:58:33;96844.97;;;16.70;42.48